createdAt,value
2018-05-26T00:00:03.836Z,17.55
2018-05-26T00:03:13.215Z,17.92
2018-05-26T00:06:22.735Z,16.95
2018-05-26T00:09:32.372Z,18.60
2018-05-26T00:12:41.828Z,19.33
2018-05-26T00:15:53.980Z,19.85
2018-05-26T00:19:03.373Z,21.00
2018-05-26T00:22:12.819Z,17.75
2018-05-26T00:25:22.953Z,20.45
2018-05-26T00:28:32.705Z,20.60
2018-05-26T00:31:42.277Z,19.08
2018-05-26T00:34:56.143Z,20.88
2018-05-26T00:38:05.473Z,18.27
2018-05-26T00:41:14.972Z,21.08
2018-05-26T00:44:24.809Z,20.90
2018-05-26T00:47:34.296Z,21.00
2018-05-26T00:50:44.163Z,22.65
2018-05-26T00:53:56.400Z,18.90
2018-05-26T00:57:05.904Z,21.15
2018-05-26T01:00:16.229Z,20.98
2018-05-26T01:03:25.753Z,21.55
2018-05-26T01:06:35.638Z,20.83
2018-05-26T01:09:45.716Z,22.70
2018-05-26T01:12:57.682Z,25.48
2018-05-26T01:16:07.740Z,26.73
2018-05-26T01:19:17.076Z,28.40
2018-05-26T01:22:27.341Z,27.20
2018-05-26T01:25:37.414Z,28.50
2018-05-26T01:28:47.727Z,26.42
2018-05-26T01:31:58.304Z,26.62
2018-05-26T01:35:07.644Z,25.30
2018-05-26T01:38:17.762Z,26.02
2018-05-26T01:41:27.469Z,26.02
2018-05-26T01:44:37.413Z,27.00
2018-05-26T01:47:47.658Z,26.20
2018-05-26T01:50:59.011Z,25.33
2018-05-26T01:54:08.485Z,25.45
2018-05-26T01:57:18.624Z,26.55
2018-05-26T02:00:28.100Z,25.35
2018-05-26T02:03:37.557Z,25.40
2018-05-26T02:06:46.866Z,24.98
2018-05-26T02:09:56.397Z,24.60
2018-05-26T02:13:06.221Z,24.07
2018-05-26T02:16:15.655Z,22.97
2018-05-26T02:19:25.966Z,22.23
2018-05-26T02:22:35.597Z,22.17
2018-05-26T02:25:44.984Z,21.00
2018-05-26T02:28:54.689Z,20.40
2018-05-26T02:32:05.008Z,20.77
2018-05-26T02:35:14.813Z,21.85
2018-05-26T02:38:24.283Z,20.93
2018-05-26T02:41:34.596Z,20.80
2018-05-26T02:44:43.920Z,20.58
2018-05-26T02:47:58.213Z,20.92
2018-05-26T02:51:07.548Z,19.80
2018-05-26T02:54:17.114Z,19.90
2018-05-26T02:57:27.353Z,19.67
2018-05-26T03:00:37.569Z,18.87
2018-05-26T03:03:46.439Z,17.15
2018-05-26T03:07:01.925Z,19.27
2018-05-26T03:10:17.629Z,17.30
2018-05-26T03:13:32.964Z,17.73
2018-05-26T03:16:51.792Z,16.77
2018-05-26T03:20:04.384Z,16.23
2018-05-26T03:23:14.173Z,16.53
2018-05-26T03:26:24.049Z,16.80
2018-05-26T03:29:33.761Z,16.43
2018-05-26T03:32:44.041Z,16.40
2018-05-26T03:35:53.718Z,16.52
2018-05-26T03:39:06.504Z,16.17
2018-05-26T03:42:15.900Z,15.40
2018-05-26T03:45:25.586Z,16.50
2018-05-26T03:48:35.481Z,15.37
2018-05-26T03:51:45.749Z,17.17
2018-05-26T03:59:06.336Z,15.38
2018-05-26T04:02:15.621Z,14.10
2018-05-26T04:05:25.165Z,14.15
2018-05-26T04:08:34.749Z,14.33
2018-05-26T04:11:45.073Z,14.30
2018-05-26T04:14:55.045Z,15.03
2018-05-26T04:18:05.722Z,13.27
2018-05-26T04:21:15.667Z,15.27
2018-05-26T04:24:26.656Z,14.47
2018-05-26T04:27:36.160Z,13.80
2018-05-26T04:30:46.377Z,14.45
2018-05-26T04:33:56.300Z,14.90
2018-05-26T04:37:08.189Z,13.15
2018-05-26T04:40:18.417Z,14.77
2018-05-26T04:43:27.832Z,14.80
2018-05-26T04:46:37.157Z,13.73
2018-05-26T04:49:47.382Z,13.80
2018-05-26T04:52:57.731Z,15.30
2018-05-26T04:56:09.201Z,14.70
2018-05-26T04:59:19.072Z,15.37
2018-05-26T05:02:29.284Z,14.60
2018-05-26T05:05:38.793Z,14.73
2018-05-26T05:08:48.650Z,14.50
2018-05-26T05:11:58.045Z,14.93
2018-05-26T05:15:10.406Z,14.37
2018-05-26T05:18:21.621Z,14.57
2018-05-26T05:21:32.155Z,14.47
2018-05-26T05:24:41.754Z,13.83
2018-05-26T05:27:51.953Z,13.27
2018-05-26T05:31:01.403Z,13.73
2018-05-26T05:34:11.733Z,14.63
2018-05-26T05:37:21.165Z,13.05
2018-05-26T05:40:30.913Z,13.38
2018-05-26T05:43:41.200Z,13.18
2018-05-26T05:46:51.169Z,12.52
2018-05-26T05:50:01.274Z,13.62
2018-05-26T05:53:13.022Z,12.70
2018-05-26T05:56:22.573Z,12.98
2018-05-26T05:59:32.241Z,14.32
2018-05-26T06:02:42.064Z,14.05
2018-05-26T06:05:52.072Z,17.60
2018-05-26T06:09:02.623Z,15.18
2018-05-26T06:12:13.205Z,14.40
2018-05-26T06:15:23.824Z,18.83
2018-05-26T06:18:35.534Z,14.82
2018-05-26T06:25:12.763Z,15.20
2018-05-26T06:28:32.358Z,15.05
2018-05-26T06:31:45.019Z,14.57
2018-05-26T06:34:55.922Z,15.00
2018-05-26T06:38:05.773Z,15.48
2018-05-26T06:41:15.744Z,15.48
2018-05-26T06:44:25.872Z,15.55
2018-05-26T06:47:35.520Z,16.75
2018-05-26T06:50:45.583Z,16.73
2018-05-26T06:53:55.769Z,15.48
2018-05-26T06:57:05.458Z,16.70
2018-05-26T07:00:16.523Z,16.00
2018-05-26T07:03:26.041Z,16.35
2018-05-26T07:06:35.899Z,15.70
2018-05-26T07:09:45.177Z,15.07
2018-05-26T07:12:55.536Z,15.13
2018-05-26T07:16:05.712Z,14.60
2018-05-26T07:19:16.120Z,15.00
2018-05-26T07:22:25.916Z,14.35
2018-05-26T07:25:35.647Z,14.27
2018-05-26T07:28:45.749Z,13.75
2018-05-26T07:31:56.570Z,15.35
2018-05-26T07:35:06.934Z,13.98
2018-05-26T07:38:17.108Z,25.70
2018-05-26T07:41:27.345Z,23.95
2018-05-26T07:44:37.767Z,13.20
2018-05-26T07:47:47.666Z,12.45
2018-05-26T07:50:57.468Z,15.05
2018-05-26T07:54:07.345Z,14.02
2018-05-26T07:57:18.777Z,13.50
2018-05-26T08:00:28.940Z,14.65
2018-05-26T08:03:38.664Z,13.88
2018-05-26T08:06:48.805Z,12.57
2018-05-26T08:09:59.054Z,12.73
2018-05-26T08:13:09.272Z,10.35
2018-05-26T08:16:19.500Z,12.00
2018-05-26T08:19:29.620Z,11.23
2018-05-26T08:22:39.790Z,10.10
2018-05-26T08:25:49.978Z,10.85
2018-05-26T08:29:00.461Z,10.82
2018-05-26T08:32:10.070Z,9.63
2018-05-26T08:35:22.071Z,8.73
2018-05-26T08:38:31.476Z,10.25
2018-05-26T08:41:41.650Z,14.77
2018-05-26T08:44:51.277Z,10.63
2018-05-26T08:48:00.920Z,9.50
2018-05-26T08:51:11.321Z,9.85
2018-05-26T08:54:21.873Z,8.90
2018-05-26T08:57:32.206Z,11.55
2018-05-26T09:00:42.561Z,8.93
2018-05-26T09:03:53.132Z,7.53
2018-05-26T09:07:02.813Z,8.90
2018-05-26T09:10:12.776Z,8.10
2018-05-26T09:13:23.138Z,7.65
2018-05-26T09:16:32.439Z,7.65
2018-05-26T09:19:42.568Z,7.82
2018-05-26T09:22:52.351Z,7.60
2018-05-26T09:26:02.580Z,7.00
2018-05-26T09:29:13.127Z,7.93
2018-05-26T09:32:23.093Z,8.02
2018-05-26T09:35:33.729Z,7.28
2018-05-26T09:38:43.420Z,6.87
2018-05-26T09:41:52.863Z,8.35
2018-05-26T09:45:02.381Z,6.85
2018-05-26T09:48:11.919Z,6.20
2018-05-26T09:51:22.851Z,7.20
2018-05-26T09:54:32.323Z,6.28
2018-05-26T09:57:44.687Z,5.55
2018-05-26T10:00:55.516Z,5.03
2018-05-26T10:04:04.893Z,4.60
2018-05-26T10:07:14.446Z,5.25
2018-05-26T10:10:24.246Z,5.53
2018-05-26T10:13:33.841Z,5.53
2018-05-26T10:16:43.833Z,4.40
2018-05-26T10:19:54.126Z,3.95
2018-05-26T10:23:03.504Z,4.18
2018-05-26T10:26:13.001Z,4.18
2018-05-26T10:29:23.794Z,4.05
2018-05-26T10:32:33.275Z,4.53
2018-05-26T10:35:44.635Z,4.03
2018-05-26T10:38:54.353Z,4.00
2018-05-26T10:42:04.577Z,3.22
2018-05-26T10:45:13.982Z,4.15
2018-05-26T10:48:24.790Z,3.80
2018-05-26T10:51:34.419Z,4.10
2018-05-26T10:54:48.032Z,3.53
2018-05-26T10:57:58.156Z,3.80
2018-05-26T11:01:08.012Z,3.25
2018-05-26T11:04:17.593Z,3.42
2018-05-26T11:07:27.165Z,3.65
2018-05-26T11:10:37.418Z,3.30
2018-05-26T11:13:47.317Z,3.35
2018-05-26T11:16:56.751Z,3.83
2018-05-26T11:20:06.293Z,3.87
2018-05-26T11:23:15.895Z,3.30
2018-05-26T11:26:26.721Z,4.53
2018-05-26T11:29:36.099Z,3.55
2018-05-26T11:32:45.676Z,3.80
2018-05-26T11:35:55.116Z,3.30
2018-05-26T11:39:06.193Z,3.33
2018-05-26T11:42:15.995Z,3.58
2018-05-26T11:45:27.061Z,3.80
2018-05-26T11:48:36.529Z,4.00
2018-05-26T11:51:45.928Z,4.05
2018-05-26T11:54:56.121Z,3.58
2018-05-26T11:58:06.284Z,4.05
2018-05-26T12:01:15.720Z,4.37
2018-05-26T12:04:25.275Z,3.90
2018-05-26T12:07:35.548Z,3.85
2018-05-26T12:10:45.142Z,4.50
2018-05-26T12:13:55.346Z,3.60
2018-05-26T12:17:04.672Z,4.05
2018-05-26T12:20:14.128Z,4.03
2018-05-26T12:23:24.133Z,3.78
2018-05-26T12:26:34.197Z,4.87
2018-05-26T12:29:43.536Z,4.87
2018-05-26T12:32:52.918Z,4.70
2018-05-26T12:36:02.805Z,4.75
2018-05-26T12:39:12.223Z,4.05
2018-05-26T12:42:21.660Z,4.10
2018-05-26T12:45:31.052Z,4.70
2018-05-26T12:48:40.678Z,3.92
2018-05-26T12:51:50.902Z,4.30
2018-05-26T12:55:01.172Z,3.70
2018-05-26T12:58:11.386Z,4.70
2018-05-26T13:01:20.855Z,4.32
2018-05-26T13:04:31.348Z,3.55
2018-05-26T13:07:41.564Z,4.35
2018-05-26T13:10:50.946Z,3.90
2018-05-26T13:14:01.541Z,4.50
2018-05-26T13:17:11.135Z,4.70
2018-05-26T13:20:20.608Z,3.67
2018-05-26T13:23:32.185Z,3.62
2018-05-26T13:26:41.694Z,3.85
2018-05-26T13:29:51.273Z,4.00
2018-05-26T13:33:00.674Z,3.45
2018-05-26T13:36:10.230Z,3.37
2018-05-26T13:39:19.681Z,3.80
2018-05-26T13:42:29.112Z,3.30
2018-05-26T13:45:39.126Z,4.05
2018-05-26T13:48:49.748Z,4.45
2018-05-26T13:51:59.704Z,3.97
2018-05-26T13:55:09.288Z,4.00
2018-05-26T13:58:18.674Z,4.07
2018-05-26T14:01:28.171Z,3.90
2018-05-26T14:04:37.579Z,3.60
2018-05-26T14:07:47.096Z,3.40
2018-05-26T14:10:57.405Z,4.05
2018-05-26T14:14:06.796Z,3.47
2018-05-26T14:17:16.367Z,3.42
2018-05-26T14:20:25.890Z,3.22
2018-05-26T14:23:35.255Z,3.12
2018-05-26T14:26:44.957Z,3.05
2018-05-26T14:29:54.512Z,3.50
2018-05-26T14:33:04.883Z,3.35
2018-05-26T14:36:15.267Z,4.00
2018-05-26T14:39:24.576Z,3.42
2018-05-26T14:42:35.273Z,3.80
2018-05-26T14:45:45.702Z,4.03
2018-05-26T14:48:56.251Z,3.17
2018-05-26T14:52:06.812Z,3.40
2018-05-26T14:55:16.386Z,3.37
2018-05-26T14:58:25.979Z,3.50
2018-05-26T15:01:36.315Z,3.45
2018-05-26T15:04:45.833Z,3.78
2018-05-26T15:07:55.385Z,3.70
2018-05-26T15:11:04.938Z,3.97
2018-05-26T15:14:14.336Z,3.55
2018-05-26T15:17:24.645Z,3.40
2018-05-26T15:20:36.936Z,3.70
2018-05-26T15:23:46.239Z,4.20
2018-05-26T15:26:55.775Z,4.57
2018-05-26T15:30:05.348Z,3.83
2018-05-26T15:33:14.788Z,4.95
2018-05-26T15:36:24.316Z,4.15
2018-05-26T15:39:33.916Z,3.70
2018-05-26T15:42:43.838Z,3.97
2018-05-26T15:45:56.602Z,3.80
2018-05-26T15:49:06.779Z,4.72
2018-05-26T15:52:17.141Z,4.43
2018-05-26T15:55:26.468Z,4.20
2018-05-26T15:58:38.125Z,3.70
2018-05-26T16:01:47.605Z,5.37
2018-05-26T16:04:57.052Z,3.62
2018-05-26T16:08:06.389Z,3.87
2018-05-26T16:11:15.781Z,3.92
2018-05-26T16:14:25.174Z,3.60
2018-05-26T16:17:34.525Z,3.50
2018-05-26T16:20:43.932Z,3.53
2018-05-26T16:23:53.688Z,4.03
2018-05-26T16:27:03.209Z,3.90
2018-05-26T16:30:13.962Z,4.47
2018-05-26T16:33:23.244Z,4.62
2018-05-26T16:36:32.754Z,3.85
2018-05-26T16:39:42.090Z,3.78
2018-05-26T16:42:55.628Z,4.47
2018-05-26T16:46:04.991Z,4.05
2018-05-26T16:49:14.459Z,3.40
2018-05-26T16:52:24.037Z,3.30
2018-05-26T16:55:33.344Z,3.72
2018-05-26T16:58:42.796Z,4.28
2018-05-26T17:01:52.305Z,3.70
2018-05-26T17:05:01.808Z,4.87
2018-05-26T17:08:11.257Z,12.68
2018-05-26T17:11:21.501Z,4.60
2018-05-26T17:14:31.109Z,3.83
2018-05-26T17:17:42.362Z,3.92
2018-05-26T17:20:51.727Z,3.67
2018-05-26T17:24:01.245Z,3.60
2018-05-26T17:27:10.730Z,3.90
2018-05-26T17:30:20.042Z,4.05
2018-05-26T17:33:29.517Z,4.03
2018-05-26T17:36:39.867Z,3.95
2018-05-26T17:39:49.298Z,4.00
2018-05-26T17:42:58.722Z,4.57
2018-05-26T17:46:08.310Z,4.07
2018-05-26T17:49:17.676Z,3.50
2018-05-26T17:52:27.278Z,4.22
2018-05-26T17:55:37.651Z,4.12
2018-05-26T17:58:46.988Z,4.25
2018-05-26T18:01:57.449Z,3.85
2018-05-26T18:05:07.279Z,4.65
2018-05-26T18:08:16.738Z,3.80
2018-05-26T18:11:29.787Z,4.07
2018-05-26T18:14:39.098Z,5.25
2018-05-26T18:17:48.547Z,4.12
2018-05-26T18:20:58.167Z,4.07
2018-05-26T18:24:08.669Z,4.40
2018-05-26T18:27:18.886Z,4.18
2018-05-26T18:30:29.003Z,4.30
2018-05-26T18:33:39.097Z,4.30
2018-05-26T18:36:48.580Z,4.20
2018-05-26T18:39:59.102Z,6.10
2018-05-26T18:43:09.288Z,4.90
2018-05-26T18:46:19.121Z,4.50
2018-05-26T18:49:28.617Z,5.05
2018-05-26T18:52:38.196Z,4.90
2018-05-26T18:55:48.273Z,4.82
2018-05-26T18:58:58.367Z,4.80
2018-05-26T19:02:08.624Z,4.60
2018-05-26T19:05:18.020Z,6.43
2018-05-26T19:08:28.285Z,4.95
2018-05-26T19:11:37.837Z,4.80
2018-05-26T19:14:49.164Z,4.50
2018-05-26T19:17:59.316Z,4.60
2018-05-26T19:21:09.300Z,4.97
2018-05-26T19:24:19.388Z,5.12
2018-05-26T19:27:28.973Z,4.55
2018-05-26T19:30:38.488Z,4.97
2018-05-26T19:33:50.047Z,5.03
2018-05-26T19:37:00.240Z,8.07
2018-05-26T19:40:09.585Z,4.53
2018-05-26T19:43:19.916Z,5.35
2018-05-26T19:46:29.283Z,5.10
2018-05-26T19:49:43.416Z,5.43
2018-05-26T19:52:53.561Z,5.32
2018-05-26T19:56:03.449Z,4.85
2018-05-26T19:59:13.749Z,5.00
2018-05-26T20:02:23.952Z,5.50
2018-05-26T20:05:34.205Z,6.18
2018-05-26T20:08:44.332Z,6.05
2018-05-26T20:11:54.680Z,6.45
2018-05-26T20:15:04.564Z,5.37
2018-05-26T20:18:14.119Z,5.85
2018-05-26T20:21:24.420Z,5.75
2018-05-26T20:24:35.448Z,5.70
2018-05-26T20:27:45.584Z,5.50
2018-05-26T20:30:55.448Z,5.40
2018-05-26T20:34:05.456Z,6.18
2018-05-26T20:37:15.478Z,11.00
2018-05-26T20:40:25.327Z,7.60
2018-05-26T20:43:35.245Z,7.25
2018-05-26T20:46:44.580Z,7.10
2018-05-26T20:49:54.440Z,5.70
2018-05-26T20:53:04.620Z,5.95
2018-05-26T20:56:14.989Z,5.50
2018-05-26T20:59:25.025Z,6.32
2018-05-26T21:02:35.316Z,6.28
2018-05-26T21:05:44.821Z,5.95
2018-05-26T21:08:55.790Z,5.70
2018-05-26T21:12:05.153Z,6.60
2018-05-26T21:15:14.728Z,6.25
2018-05-26T21:18:24.783Z,5.90
2018-05-26T21:21:35.150Z,6.18
2018-05-26T21:24:48.697Z,5.90
2018-05-26T21:27:58.226Z,6.15
2018-05-26T21:31:08.165Z,5.60
2018-05-26T21:34:17.693Z,6.15
2018-05-26T21:37:27.202Z,6.10
2018-05-26T21:40:36.641Z,5.72
2018-05-26T21:43:46.154Z,5.62
2018-05-26T21:46:56.625Z,6.43
2018-05-26T21:50:10.541Z,6.45
2018-05-26T21:53:21.946Z,7.10
2018-05-26T21:56:31.553Z,5.72
2018-05-26T21:59:41.333Z,6.90
2018-05-26T22:02:55.544Z,6.35
2018-05-26T22:06:06.325Z,5.47
2018-05-26T22:09:16.140Z,5.82
2018-05-26T22:12:25.598Z,6.15
2018-05-26T22:15:35.729Z,5.32
2018-05-26T22:18:50.396Z,5.25
2018-05-26T22:22:00.991Z,5.40
2018-05-26T22:25:11.812Z,5.20
2018-05-26T22:28:21.960Z,5.30
2018-05-26T22:31:32.296Z,5.00
2018-05-26T22:34:41.856Z,5.35
2018-05-26T22:37:52.074Z,5.30
2018-05-26T22:41:01.393Z,5.30
2018-05-26T22:44:10.710Z,4.68
2018-05-26T22:47:20.791Z,4.72
2018-05-26T22:50:30.401Z,6.07
2018-05-26T22:53:39.860Z,5.43
2018-05-26T22:56:49.969Z,4.30
2018-05-26T23:00:00.223Z,4.25
2018-05-26T23:03:09.560Z,3.87
2018-05-26T23:06:19.008Z,4.07
2018-05-26T23:09:29.069Z,4.00
2018-05-26T23:12:38.863Z,4.05
2018-05-26T23:15:48.279Z,4.12
2018-05-26T23:18:57.766Z,4.45
2018-05-26T23:22:07.452Z,3.80
2018-05-26T23:25:16.897Z,4.03
2018-05-26T23:28:27.034Z,3.78
2018-05-26T23:31:37.224Z,4.18
2018-05-26T23:34:47.470Z,4.10
2018-05-26T23:37:57.465Z,4.00
2018-05-26T23:41:07.783Z,4.30
2018-05-26T23:44:17.764Z,4.45
2018-05-26T23:47:27.128Z,4.30
2018-05-26T23:50:36.733Z,4.32
2018-05-26T23:53:46.343Z,4.28
2018-05-26T23:56:55.916Z,4.00
